Time;durP1;ratioP1;P1;durP2;ratioP2;P2;SDS_P1;SDS_P2;PMS_P1;PMS_P2;Temp;Humidity;BMP_temperature;BMP_pressure;BME280_temperature;BME280_humidity;BME280_pressure;Samples;Min_cycle;Max_cycle;Signal;HPM_P1;HPM_P2
2023/03/27 00:00:49;;;;;;;1.63;1.10;;;3.60;99.90;;;;;;5074494;28;20467;-71
2023/03/27 00:03:15;;;;;;;3.10;1.13;;;3.60;99.90;;;;;;5074520;28;20528;-69
2023/03/27 00:05:41;;;;;;;3.53;1.30;;;3.50;99.90;;;;;;5055339;28;20542;-71
2023/03/27 00:08:11;;;;;;;1.90;1.20;;;3.50;99.90;;;;;;5054293;28;20167;-70
2023/03/27 00:10:37;;;;;;;3.00;1.13;;;3.50;99.90;;;;;;5053933;28;20443;-69
2023/03/27 00:13:05;;;;;;;3.27;1.43;;;3.60;99.90;;;;;;5053732;28;20432;-71
2023/03/27 00:15:31;;;;;;;2.60;1.30;;;3.60;99.90;;;;;;5054362;28;20760;-69
2023/03/27 00:17:57;;;;;;;10.40;2.20;;;3.70;99.90;;;;;;5054237;28;20409;-69
2023/03/27 00:20:25;;;;;;;6.67;1.40;;;3.70;99.90;;;;;;5053852;28;20488;-69
2023/03/27 00:22:55;;;;;;;1.83;1.33;;;3.70;99.90;;;;;;5053629;28;20195;-71
2023/03/27 00:25:26;;;;;;;4.70;1.73;;;3.70;99.90;;;;;;5053114;28;20753;-71
2023/03/27 00:27:55;;;;;;;4.90;1.63;;;3.70;99.90;;;;;;5054018;28;20500;-70
2023/03/27 00:30:21;;;;;;;2.50;1.60;;;3.60;99.90;;;;;;5054258;28;20405;-69
2023/03/27 00:32:47;;;;;;;2.83;1.30;;;3.60;99.90;;;;;;5053450;28;20488;-70
2023/03/27 00:35:13;;;;;;;6.23;1.70;;;3.60;99.90;;;;;;5053315;28;20563;-69
2023/03/27 00:37:40;;;;;;;2.60;1.40;;;3.50;99.90;;;;;;5053388;28;20911;-71
2023/03/27 00:40:12;;;;;;;5.23;1.37;;;3.50;99.90;;;;;;5053092;28;20159;-70
2023/03/27 00:42:37;;;;;;;3.57;1.23;;;3.40;99.90;;;;;;5053346;28;20428;-70
2023/03/27 00:45:03;;;;;;;3.63;0.97;;;3.40;99.90;;;;;;5053139;28;20970;-70
2023/03/27 00:47:32;;;;;;;3.17;1.23;;;3.30;99.90;;;;;;5052992;28;20167;-70
2023/03/27 00:50:07;;;;;;;4.53;1.67;;;3.30;99.90;;;;;;5053458;28;20439;-71
2023/03/27 00:52:35;;;;;;;11.23;1.30;;;3.30;99.90;;;;;;5053926;28;20823;-71
2023/03/27 00:55:06;;;;;;;3.67;1.20;;;3.30;99.90;;;;;;5054042;28;20446;-69
2023/03/27 00:57:31;;;;;;;3.30;1.40;;;3.30;99.90;;;;;;5052719;28;20401;-69
2023/03/27 01:00:00;;;;;;;1.70;1.27;;;3.20;99.90;;;;;;5061817;28;20629;-69
2023/03/27 01:02:26;;;;;;;4.50;1.50;;;3.20;99.90;;;;;;5055786;28;20584;-69
2023/03/27 01:04:53;;;;;;;5.43;1.53;;;3.10;99.90;;;;;;5040250;28;20446;-70
2023/03/27 01:07:21;;;;;;;3.80;1.20;;;3.10;99.90;;;;;;5032621;28;20407;-70
2023/03/27 01:09:47;;;;;;;2.63;1.53;;;3.10;99.90;;;;;;5031607;28;20413;-69
2023/03/27 01:12:41;;;;;;;9.27;1.80;;;3.10;99.90;;;;;;5032759;28;20413;-69
2023/03/27 01:15:35;;;;;;;5.83;1.63;;;3.10;99.90;;;;;;5032849;28;20429;-71
2023/03/27 01:18:22;;;;;;;3.40;1.93;;;3.00;99.90;;;;;;5033241;28;20405;-71
2023/03/27 01:21:16;;;;;;;5.90;1.37;;;3.00;99.90;;;;;;5032918;28;20406;-69
2023/03/27 01:24:10;;;;;;;3.67;1.60;;;3.00;99.90;;;;;;5032457;28;20458;-70
2023/03/27 01:26:56;;;;;;;4.70;1.93;;;3.00;99.90;;;;;;5031482;28;20951;-70
2023/03/27 01:29:35;;;;;;;2.63;1.07;;;3.00;99.90;;;;;;5033321;28;20412;-70
2023/03/27 01:32:19;;;;;;;3.50;1.43;;;2.90;99.90;;;;;;5031455;28;20406;-70
2023/03/27 01:35:22;;;;;;;2.20;0.70;;;3.00;99.90;;;;;;5033491;28;20410;-70
2023/03/27 01:37:58;;;;;;;4.03;3.47;;;2.90;99.90;;;;;;5031033;28;20460;-70
2023/03/27 01:40:32;;;;;;;4.10;1.77;;;2.90;99.90;;;;;;5032273;28;20528;-69
2023/03/27 01:43:12;;;;;;;5.40;1.63;;;2.90;99.90;;;;;;5030960;28;20440;-69
2023/03/27 01:45:51;;;;;;;5.10;1.30;;;2.90;99.90;;;;;;5032349;28;20425;-70
2023/03/27 01:48:27;;;;;;;1.00;0.70;;;2.90;99.90;;;;;;5032048;28;20926;-69
2023/03/27 01:50:59;;;;;;;9.53;1.33;;;2.80;99.90;;;;;;5031922;28;20402;-69
2023/03/27 01:53:39;;;;;;;4.30;1.27;;;2.90;99.90;;;;;;5032156;28;20429;-69
2023/03/27 01:56:17;;;;;;;6.70;1.30;;;2.80;99.90;;;;;;5032181;28;20418;-70
2023/03/27 01:58:48;;;;;;;3.87;1.43;;;2.90;99.90;;;;;;5030562;28;20476;-70
2023/03/27 02:01:20;;;;;;;2.77;1.60;;;2.90;99.90;;;;;;5032475;28;20827;-71
2023/03/27 02:03:50;;;;;;;1.97;1.23;;;2.80;99.90;;;;;;5032838;28;20911;-69
2023/03/27 02:06:20;;;;;;;7.37;1.20;;;2.80;99.90;;;;;;5032558;28;20398;-71
2023/03/27 02:08:57;;;;;;;5.73;1.40;;;2.80;99.90;;;;;;5031837;28;20406;-70
2023/03/27 02:11:28;;;;;;;3.83;1.60;;;2.80;99.90;;;;;;5053123;28;20404;-69
2023/03/27 02:13:59;;;;;;;8.00;2.03;;;2.80;99.90;;;;;;5054710;28;20981;-70
2023/03/27 02:16:32;;;;;;;2.70;2.10;;;2.90;99.90;;;;;;5051982;28;20433;-69
2023/03/27 02:19:02;;;;;;;3.00;0.90;;;2.90;99.90;;;;;;5052398;28;20455;-71
2023/03/27 02:21:30;;;;;;;16.70;1.93;;;3.00;99.90;;;;;;5053098;28;20413;-70
2023/03/27 02:23:56;;;;;;;4.20;1.57;;;3.00;99.90;;;;;;5052766;28;20957;-71
2023/03/27 02:26:22;;;;;;;5.67;1.20;;;3.00;99.90;;;;;;5052727;28;20428;-70
2023/03/27 02:29:00;;;;;;;4.23;1.30;;;3.10;99.90;;;;;;5052280;28;20401;-71
2023/03/27 02:31:41;;;;;;;21.83;1.70;;;3.10;99.90;;;;;;5051592;28;20447;-70
2023/03/27 02:34:24;;;;;;;4.77;1.50;;;3.30;99.90;;;;;;5052690;28;20997;-71
2023/03/27 02:37:15;;;;;;;3.03;1.77;;;3.30;99.90;;;;;;5052582;28;20405;-69
2023/03/27 02:39:40;;;;;;;2.50;1.30;;;3.40;99.90;;;;;;5053422;28;20408;-71
2023/03/27 02:42:14;;;;;;;17.87;2.70;;;3.30;99.90;;;;;;5052031;28;20443;-70
2023/03/27 02:44:55;;;;;;;3.40;1.00;;;3.30;99.90;;;;;;5053351;28;20193;-71
2023/03/27 02:47:29;;;;;;;8.73;1.33;;;3.20;99.90;;;;;;5051550;28;20413;-71
2023/03/27 02:50:03;;;;;;;5.77;2.23;;;3.10;99.90;;;;;;5052447;28;20413;-71
2023/03/27 02:52:34;;;;;;;2.17;1.57;;;3.00;99.90;;;;;;5053112;28;20472;-71
2023/03/27 02:55:05;;;;;;;11.60;2.33;;;3.00;99.90;;;;;;5051705;28;20508;-72
2023/03/27 02:57:37;;;;;;;2.13;1.17;;;2.90;99.90;;;;;;5052363;28;20417;-71
2023/03/27 03:00:11;;;;;;;1.83;1.20;;;2.90;99.90;;;;;;5051849;28;20471;-71
2023/03/27 03:02:37;;;;;;;3.47;1.33;;;2.90;99.90;;;;;;5053496;28;20501;-71
2023/03/27 03:05:09;;;;;;;2.87;1.97;;;2.80;99.90;;;;;;5041377;28;20458;-71
2023/03/27 03:07:37;;;;;;;2.33;1.37;;;2.80;99.90;;;;;;5035861;28;20489;-71
2023/03/27 03:10:04;;;;;;;1.83;1.40;;;2.70;99.90;;;;;;5036908;28;20437;-69
2023/03/27 03:12:29;;;;;;;5.50;1.20;;;2.70;99.90;;;;;;5036103;28;20422;-71
2023/03/27 03:14:55;;;;;;;3.57;0.93;;;2.70;99.90;;;;;;5036304;28;20528;-72
2023/03/27 03:17:21;;;;;;;6.50;1.20;;;2.60;99.90;;;;;;5035046;28;20168;-71
2023/03/27 03:19:47;;;;;;;4.80;1.40;;;2.60;99.90;;;;;;5036558;28;20172;-72
2023/03/27 03:22:13;;;;;;;1.83;1.10;;;2.60;99.90;;;;;;5045088;28;20178;-71
2023/03/27 03:24:40;;;;;;;2.07;1.43;;;2.50;99.90;;;;;;5064441;28;20453;-70
2023/03/27 03:27:07;;;;;;;5.73;1.60;;;2.50;99.90;;;;;;5056232;28;20417;-71
2023/03/27 03:29:35;;;;;;;3.93;1.50;;;2.50;99.90;;;;;;5055004;28;20441;-71
2023/03/27 03:32:02;;;;;;;6.10;1.30;;;2.40;99.90;;;;;;5056334;28;20955;-71
2023/03/27 03:34:29;;;;;;;3.80;1.67;;;2.40;99.90;;;;;;5055188;28;20934;-71
2023/03/27 03:36:55;;;;;;;4.73;1.30;;;2.40;99.90;;;;;;5055704;28;20409;-71
2023/03/27 03:39:21;;;;;;;1.70;1.30;;;2.30;99.90;;;;;;5056679;28;20486;-71
2023/03/27 03:41:47;;;;;;;3.57;1.40;;;2.30;99.90;;;;;;5055551;28;20866;-71
2023/03/27 03:44:12;;;;;;;1.93;1.20;;;2.30;99.90;;;;;;5056073;28;20483;-71
2023/03/27 03:46:39;;;;;;;2.40;0.80;;;2.30;99.90;;;;;;5055840;28;20484;-72
2023/03/27 03:49:05;;;;;;;1.27;1.10;;;2.20;99.90;;;;;;5054597;28;20178;-71
2023/03/27 03:51:32;;;;;;;5.70;1.27;;;2.20;99.90;;;;;;5055931;28;20489;-72
2023/03/27 03:53:57;;;;;;;1.23;0.97;;;2.20;99.90;;;;;;5056483;28;20980;-70
2023/03/27 03:56:23;;;;;;;2.27;1.23;;;2.10;99.90;;;;;;5056832;28;20444;-71
2023/03/27 03:58:48;;;;;;;1.80;1.43;;;2.20;99.90;;;;;;5056444;28;20199;-72
2023/03/27 04:01:14;;;;;;;2.10;1.10;;;2.10;99.90;;;;;;5054866;28;20181;-71
2023/03/27 04:03:40;;;;;;;2.20;1.33;;;2.10;99.90;;;;;;5052454;28;20198;-70
2023/03/27 04:06:06;;;;;;;5.33;1.67;;;2.10;99.90;;;;;;5036840;28;20191;-71
2023/03/27 04:08:33;;;;;;;7.03;1.63;;;2.10;99.90;;;;;;5035038;28;20464;-70
2023/03/27 04:10:59;;;;;;;3.33;1.23;;;2.10;99.90;;;;;;5034891;28;20489;-71
2023/03/27 04:13:24;;;;;;;5.23;1.70;;;2.10;99.90;;;;;;5036365;28;20469;-71
2023/03/27 04:15:51;;;;;;;1.60;1.10;;;2.10;99.90;;;;;;5035708;28;20263;-71
2023/03/27 04:18:18;;;;;;;2.70;1.30;;;2.10;99.90;;;;;;5037082;28;20167;-72
2023/03/27 04:20:48;;;;;;;6.43;2.03;;;2.10;99.90;;;;;;5037187;28;20420;-72
2023/03/27 04:23:17;;;;;;;7.07;3.17;;;2.00;99.90;;;;;;5036856;28;20453;-71
2023/03/27 04:25:45;;;;;;;4.43;1.70;;;2.00;99.90;;;;;;5035759;28;20415;-71
2023/03/27 04:28:15;;;;;;;2.00;1.10;;;2.00;99.90;;;;;;5038687;28;20403;-70
2023/03/27 04:30:44;;;;;;;2.67;1.50;;;2.00;99.90;;;;;;5039156;28;20418;-72
2023/03/27 04:33:17;;;;;;;2.37;1.60;;;2.00;99.90;;;;;;5042351;28;20966;-73
2023/03/27 04:35:45;;;;;;;3.37;1.73;;;1.90;99.90;;;;;;5063058;28;20415;-70
2023/03/27 04:38:12;;;;;;;4.67;1.97;;;1.90;99.90;;;;;;5075871;28;20416;-70
2023/03/27 04:40:44;;;;;;;2.90;1.77;;;1.90;99.90;;;;;;5073267;28;20772;-71
2023/03/27 04:43:11;;;;;;;3.20;1.73;;;1.90;99.90;;;;;;5074029;28;20417;-71
2023/03/27 04:45:37;;;;;;;2.97;1.67;;;1.90;99.90;;;;;;5072763;28;20437;-70
2023/03/27 04:48:04;;;;;;;4.00;2.10;;;1.90;99.90;;;;;;5073972;28;20745;-71
2023/03/27 04:50:30;;;;;;;2.07;1.40;;;1.90;99.90;;;;;;5074332;28;20405;-72
2023/03/27 04:52:59;;;;;;;4.70;2.43;;;1.90;99.90;;;;;;5074309;28;20416;-72
2023/03/27 04:55:25;;;;;;;4.23;1.80;;;1.90;99.90;;;;;;5073843;28;20404;-71
2023/03/27 04:57:52;;;;;;;4.97;1.60;;;1.80;99.90;;;;;;5073589;28;20400;-70
2023/03/27 05:00:19;;;;;;;4.50;1.90;;;1.90;99.90;;;;;;5074005;28;20399;-71
2023/03/27 05:02:51;;;;;;;7.37;2.57;;;1.90;99.90;;;;;;5072845;28;20461;-71
2023/03/27 05:05:18;;;;;;;3.63;1.43;;;1.90;99.90;;;;;;5058008;28;20993;-72
2023/03/27 05:07:44;;;;;;;6.30;2.03;;;1.90;99.90;;;;;;5052081;28;20418;-70
2023/03/27 05:10:10;;;;;;;2.67;1.93;;;1.90;99.90;;;;;;5053319;28;20926;-71
2023/03/27 05:12:40;;;;;;;5.50;2.27;;;2.00;99.90;;;;;;5053278;28;20432;-72
2023/03/27 05:15:08;;;;;;;3.13;1.47;;;2.00;99.90;;;;;;5053465;28;20194;-72
2023/03/27 05:17:39;;;;;;;6.23;2.10;;;2.10;99.90;;;;;;5051932;28;20450;-72
2023/03/27 05:20:07;;;;;;;4.57;1.40;;;2.10;99.90;;;;;;5053752;28;20412;-71
2023/03/27 05:22:32;;;;;;;3.57;1.80;;;2.20;99.90;;;;;;5053465;28;20427;-71
2023/03/27 05:24:58;;;;;;;1.30;1.20;;;2.30;99.90;;;;;;5051542;28;20461;-71
2023/03/27 05:27:24;;;;;;;1.77;1.20;;;2.40;99.90;;;;;;5053000;28;20163;-71
2023/03/27 05:29:49;;;;;;;2.07;1.87;;;2.50;99.90;;;;;;5052082;28;20250;-71
2023/03/27 05:32:15;;;;;;;8.60;1.83;;;2.60;99.90;;;;;;5053582;28;20258;-71
2023/03/27 05:34:41;;;;;;;3.20;1.40;;;2.80;99.90;;;;;;5051965;28;20178;-71
2023/03/27 05:37:06;;;;;;;2.47;1.63;;;2.90;99.90;;;;;;5053407;28;20171;-70
2023/03/27 05:39:32;;;;;;;2.20;1.70;;;3.00;99.90;;;;;;5052957;28;20417;-71
2023/03/27 05:41:58;;;;;;;8.33;1.37;;;3.10;99.90;;;;;;5053771;28;20638;-71
2023/03/27 05:44:24;;;;;;;3.83;1.57;;;3.30;99.90;;;;;;5053275;28;20604;-71
2023/03/27 05:46:50;;;;;;;2.13;1.63;;;3.40;99.90;;;;;;5059515;28;20508;-72
2023/03/27 05:49:15;;;;;;;4.57;1.40;;;3.50;99.90;;;;;;5073228;28;20404;-72
2023/03/27 05:51:41;;;;;;;2.53;1.40;;;3.70;99.90;;;;;;5073767;28;20181;-72
2023/03/27 05:54:07;;;;;;;2.87;1.93;;;3.80;99.90;;;;;;5072150;28;20194;-72
2023/03/27 05:56:32;;;;;;;4.70;2.40;;;4.00;99.90;;;;;;5072019;28;20409;-71
2023/03/27 05:58:58;;;;;;;9.70;1.77;;;4.10;99.90;;;;;;5073754;28;20171;-72
2023/03/27 06:01:24;;;;;;;3.93;2.03;;;4.20;99.90;;;;;;5073883;28;20166;-72
2023/03/27 06:03:54;;;;;;;2.10;1.30;;;4.30;99.90;;;;;;5069545;28;20191;-72
2023/03/27 06:06:20;;;;;;;3.60;1.40;;;4.50;99.90;;;;;;5053148;28;20481;-72
2023/03/27 06:08:45;;;;;;;2.07;1.87;;;4.60;99.90;;;;;;5053468;28;20906;-72
2023/03/27 06:11:14;;;;;;;5.50;1.77;;;4.70;99.90;;;;;;5053631;28;20209;-71
2023/03/27 06:13:39;;;;;;;2.00;1.77;;;4.90;99.90;;;;;;5052271;28;20210;-71
2023/03/27 06:16:06;;;;;;;3.83;2.03;;;5.10;99.90;;;;;;5053433;28;20450;-70
2023/03/27 06:18:32;;;;;;;3.67;1.37;;;5.30;99.90;;;;;;5053186;28;20171;-72
2023/03/27 06:20:58;;;;;;;3.30;1.40;;;5.50;99.90;;;;;;5052209;28;20436;-72
2023/03/27 06:23:23;;;;;;;3.07;1.50;;;5.80;99.90;;;;;;5053184;28;20444;-72
2023/03/27 06:25:50;;;;;;;12.00;1.70;;;6.00;99.90;;;;;;5054383;28;20254;-72
2023/03/27 06:28:15;;;;;;;3.00;1.57;;;6.20;99.90;;;;;;5052798;28;20163;-70
2023/03/27 06:30:41;;;;;;;3.43;1.77;;;6.60;99.90;;;;;;5053625;28;20953;-72
2023/03/27 06:33:07;;;;;;;2.17;1.50;;;7.10;99.90;;;;;;5055554;28;20319;-72
2023/03/27 06:35:34;;;;;;;2.17;1.50;;;7.50;99.90;;;;;;5054551;28;20413;-72
2023/03/27 06:38:03;;;;;;;2.03;1.57;;;7.80;99.90;;;;;;5056103;28;20692;-72
2023/03/27 06:40:30;;;;;;;6.57;2.30;;;7.90;99.90;;;;;;5057955;28;20504;-73
2023/03/27 06:43:01;;;;;;;3.03;2.30;;;7.90;99.90;;;;;;5057641;28;20953;-71
2023/03/27 06:45:30;;;;;;;2.70;1.10;;;7.70;99.90;;;;;;5057227;28;21002;-72
2023/03/27 06:47:57;;;;;;;1.83;1.20;;;7.50;99.90;;;;;;5058684;28;20898;-73
2023/03/27 06:50:24;;;;;;;1.10;1.00;;;7.40;99.90;;;;;;5059160;28;20389;-72
2023/03/27 06:52:50;;;;;;;2.00;1.50;;;7.30;99.90;;;;;;5057508;28;20428;-71
2023/03/27 06:55:17;;;;;;;2.20;1.50;;;7.40;99.90;;;;;;5058902;28;20385;-72
2023/03/27 06:57:44;;;;;;;7.50;2.30;;;7.50;99.90;;;;;;5066074;28;20562;-72
2023/03/27 07:00:17;;;;;;;1.77;1.23;;;7.90;99.90;;;;;;5079046;28;20388;-70
2023/03/27 07:02:44;;;;;;;3.57;1.50;;;8.30;99.90;;;;;;5078665;28;20416;-71
2023/03/27 07:05:09;;;;;;;1.50;1.40;;;8.80;99.90;;;;;;5060148;28;20459;-72
2023/03/27 07:07:35;;;;;;;1.47;1.10;;;9.10;99.90;;;;;;5054686;28;20393;-71
2023/03/27 07:10:00;;;;;;;2.87;1.50;;;9.40;99.90;;;;;;5055415;28;20159;-70
2023/03/27 07:12:26;;;;;;;2.80;1.37;;;9.60;99.90;;;;;;5055018;28;20183;-71
2023/03/27 07:14:52;;;;;;;3.17;2.67;;;9.80;99.90;;;;;;5053732;28;20190;-71
2023/03/27 07:17:17;;;;;;;2.13;1.33;;;10.10;99.90;;;;;;5054784;28;20167;-71
2023/03/27 07:19:43;;;;;;;1.33;1.23;;;10.90;99.90;;;;;;5055068;28;20194;-69
2023/03/27 07:22:08;;;;;;;1.60;1.30;;;12.20;99.90;;;;;;5054737;28;20701;-68
2023/03/27 07:24:34;;;;;;;2.60;1.20;;;13.60;99.90;;;;;;5054889;28;20206;-69
2023/03/27 07:27:00;;;;;;;1.53;1.43;;;15.00;99.90;;;;;;5054552;28;20241;-68
2023/03/27 07:29:26;;;;;;;1.70;1.40;;;16.10;96.20;;;;;;5054720;28;20166;-69
2023/03/27 07:31:51;;;;;;;1.50;1.10;;;17.50;89.30;;;;;;5054627;28;20170;-69
2023/03/27 07:34:17;;;;;;;2.47;1.40;;;18.30;75.80;;;;;;5054590;28;20190;-70
2023/03/27 07:36:43;;;;;;;1.53;1.23;;;18.40;66.20;;;;;;5054541;28;20177;-69
2023/03/27 07:39:11;;;;;;;1.10;1.00;;;18.60;62.90;;;;;;5054394;28;20237;-70
2023/03/27 07:41:36;;;;;;;3.37;1.37;;;18.90;60.00;;;;;;5054614;28;20501;-69
2023/03/27 07:44:02;;;;;;;5.03;2.70;;;19.20;58.80;;;;;;5054378;28;20552;-70
2023/03/27 07:46:28;;;;;;;1.50;1.20;;;20.00;57.40;;;;;;5054448;28;20209;-69
2023/03/27 07:48:55;;;;;;;1.73;1.20;;;21.00;57.00;;;;;;5053605;28;20167;-70
2023/03/27 07:51:22;;;;;;;2.10;1.50;;;22.00;55.80;;;;;;5054325;28;20191;-70
2023/03/27 07:53:52;;;;;;;2.50;1.17;;;22.70;51.70;;;;;;5054288;28;20469;-70
2023/03/27 07:56:19;;;;;;;4.10;1.37;;;23.10;49.50;;;;;;5053033;28;20409;-71
2023/03/27 07:58:45;;;;;;;2.53;1.30;;;23.70;48.30;;;;;;5053965;28;20405;-71
2023/03/27 08:01:10;;;;;;;1.63;1.17;;;24.20;46.30;;;;;;5054300;28;20407;-70
2023/03/27 08:03:37;;;;;;;1.57;1.30;;;24.60;46.30;;;;;;5051802;28;20544;-70
2023/03/27 08:06:03;;;;;;;1.73;1.37;;;25.10;44.60;;;;;;5062018;28;20171;-70
2023/03/27 08:08:29;;;;;;;1.87;1.37;;;25.60;43.40;;;;;;5054093;28;20452;-71
2023/03/27 08:10:56;;;;;;;1.63;1.53;;;25.50;40.60;;;;;;5054100;28;20433;-71
2023/03/27 08:13:22;;;;;;;3.63;1.40;;;24.70;40.00;;;;;;5053366;28;20667;-70
2023/03/27 08:15:47;;;;;;;2.87;1.47;;;23.50;40.10;;;;;;5052730;28;20408;-71
2023/03/27 08:18:13;;;;;;;3.17;1.30;;;22.20;41.20;;;;;;5053559;28;20626;-70
2023/03/27 08:20:38;;;;;;;1.67;1.57;;;21.60;42.60;;;;;;5053775;28;20186;-70
2023/03/27 08:23:04;;;;;;;4.70;1.47;;;21.60;44.70;;;;;;5053612;28;20560;-70
2023/03/27 08:25:33;;;;;;;4.33;1.13;;;21.90;43.70;;;;;;5053727;28;20174;-70
2023/03/27 08:27:59;;;;;;;2.67;2.03;;;21.70;42.60;;;;;;5053431;28;20553;-71
2023/03/27 08:30:25;;;;;;;6.37;1.30;;;21.50;42.10;;;;;;5053651;28;20397;-70
2023/03/27 08:32:51;;;;;;;3.63;1.50;;;21.10;42.90;;;;;;5053633;28;20432;-70
2023/03/27 08:35:16;;;;;;;3.47;2.43;;;21.20;44.60;;;;;;5053525;28;20253;-71
2023/03/27 08:37:42;;;;;;;2.87;1.10;;;22.30;43.90;;;;;;5053201;28;20168;-71
2023/03/27 08:40:24;;;;;;;2.70;1.40;;;22.80;43.20;;;;;;5053487;28;20402;-70
2023/03/27 08:42:53;;;;;;;2.00;1.07;;;24.10;41.50;;;;;;5053454;28;20845;-70
2023/03/27 08:45:25;;;;;;;1.93;1.10;;;24.80;40.80;;;;;;5053316;28;20488;-71
2023/03/27 08:48:13;;;;;;;2.63;1.30;;;24.30;40.20;;;;;;5053058;28;20397;-71
2023/03/27 08:50:48;;;;;;;1.97;1.00;;;23.30;39.90;;;;;;5053246;28;20409;-71
2023/03/27 08:53:32;;;;;;;2.23;1.33;;;22.40;41.40;;;;;;5053156;28;20566;-71
2023/03/27 08:55:59;;;;;;;2.27;1.10;;;21.20;41.00;;;;;;5053188;28;20425;-69
2023/03/27 08:58:25;;;;;;;1.60;0.90;;;19.80;41.00;;;;;;5053024;28;20493;-69
2023/03/27 09:01:06;;;;;;;2.27;1.27;;;18.30;41.50;;;;;;5052280;28;20398;-69
2023/03/27 09:03:50;;;;;;;3.03;1.20;;;17.00;43.10;;;;;;5051368;28;20460;-70
2023/03/27 09:06:25;;;;;;;1.50;1.30;;;15.60;44.10;;;;;;5033211;28;20477;-70
2023/03/27 09:09:05;;;;;;;3.00;2.20;;;14.50;46.10;;;;;;5032799;28;20444;-69
2023/03/27 09:11:52;;;;;;;2.90;1.13;;;15.50;50.60;;;;;;5051987;28;20430;-70
2023/03/27 09:14:42;;;;;;;4.17;1.20;;;18.60;47.20;;;;;;5054761;28;20452;-70
2023/03/27 09:17:25;;;;;;;2.00;1.20;;;18.80;44.30;;;;;;5032713;28;20414;-71
2023/03/27 09:20:17;;;;;;;3.80;1.13;;;19.00;44.10;;;;;;5032666;28;20437;-72
2023/03/27 09:22:48;;;;;;;1.57;0.90;;;18.40;42.80;;;;;;5032773;28;20418;-71
2023/03/27 09:25:22;;;;;;;2.13;1.10;;;18.70;44.20;;;;;;5032651;28;20454;-72
2023/03/27 09:27:48;;;;;;;2.17;1.33;;;18.80;41.80;;;;;;5032369;28;20402;-71
2023/03/27 09:30:23;;;;;;;4.03;1.37;;;20.10;42.70;;;;;;5032448;28;20446;-72
2023/03/27 09:32:53;;;;;;;1.43;1.20;;;22.70;42.40;;;;;;5032520;28;20846;-72
2023/03/27 09:35:20;;;;;;;2.87;1.50;;;25.90;39.80;;;;;;5032364;28;20413;-72
2023/03/27 09:37:47;;;;;;;3.53;1.63;;;28.30;36.40;;;;;;5032391;28;20411;-72
2023/03/27 09:40:44;;;;;;;2.50;1.43;;;30.20;33.20;;;;;;5032452;28;20476;-72
2023/03/27 09:43:32;;;;;;;3.90;1.30;;;31.60;31.40;;;;;;5032601;28;20954;-73
2023/03/27 09:45:58;;;;;;;6.77;2.30;;;33.10;29.60;;;;;;5032299;28;20401;-72
2023/03/27 09:48:37;;;;;;;3.13;1.30;;;34.00;28.50;;;;;;5031680;28;20399;-72
2023/03/27 09:51:04;;;;;;;2.40;1.80;;;34.90;27.60;;;;;;5032297;28;21076;-72
2023/03/27 09:53:29;;;;;;;5.20;1.87;;;35.40;26.30;;;;;;5032058;28;20433;-72
2023/03/27 09:55:59;;;;;;;3.50;1.77;;;35.80;26.90;;;;;;5032205;28;20398;-73
2023/03/27 09:58:33;;;;;;;1.87;1.77;;;35.20;25.50;;;;;;5031631;28;20172;-73
2023/03/27 10:01:26;;;;;;;2.40;1.37;;;33.10;25.50;;;;;;5032156;28;20759;-72
2023/03/27 10:03:53;;;;;;;4.70;1.97;;;29.80;26.20;;;;;;5036088;28;20484;-72
2023/03/27 10:06:31;;;;;;;4.10;1.97;;;27.80;28.20;;;;;;5051780;28;20405;-71
2023/03/27 10:09:01;;;;;;;9.50;1.50;;;27.80;30.00;;;;;;5051727;28;20405;-70
2023/03/27 10:11:31;;;;;;;3.10;1.20;;;29.60;30.20;;;;;;5051904;28;20933;-71
2023/03/27 10:13:59;;;;;;;3.57;1.43;;;31.90;29.50;;;;;;5051911;28;20453;-71
2023/03/27 10:16:26;;;;;;;2.70;1.43;;;33.70;28.10;;;;;;5051899;28;20891;-71
2023/03/27 10:18:56;;;;;;;2.10;1.43;;;34.70;27.10;;;;;;5051586;28;20448;-71
2023/03/27 10:21:30;;;;;;;2.60;1.77;;;33.90;26.20;;;;;;5051770;28;20433;-71
2023/03/27 10:24:44;;;;;;;4.17;1.40;;;33.80;26.20;;;;;;5060424;28;20460;-71
2023/03/27 10:27:19;;;;;;;3.43;2.27;;;32.80;25.60;;;;;;5051787;28;20451;-71
2023/03/27 10:29:44;;;;;;;2.37;1.30;;;30.70;26.30;;;;;;5051813;28;20451;-71
2023/03/27 10:32:10;;;;;;;2.77;1.60;;;28.70;27.40;;;;;;5051640;28;20394;-71
2023/03/27 10:34:37;;;;;;;5.57;2.53;;;27.60;28.00;;;;;;5051669;28;20198;-71
2023/03/27 10:37:19;;;;;;;3.00;2.33;;;26.60;28.70;;;;;;5051490;28;20167;-71
2023/03/27 10:39:45;;;;;;;6.47;1.70;;;27.90;30.70;;;;;;5051663;28;20438;-71
2023/03/27 10:42:13;;;;;;;3.53;1.90;;;28.60;28.30;;;;;;5051556;28;20416;-71
2023/03/27 10:44:41;;;;;;;4.60;1.47;;;27.20;27.90;;;;;;5051578;28;20483;-71
2023/03/27 10:47:22;;;;;;;3.70;1.00;;;25.50;28.80;;;;;;5051151;28;20448;-71
2023/03/27 10:50:14;;;;;;;3.03;1.20;;;26.40;30.70;;;;;;5051583;28;20413;-71
2023/03/27 10:53:02;;;;;;;2.10;1.47;;;28.90;30.20;;;;;;5039723;28;20429;-71
2023/03/27 10:55:52;;;;;;;1.63;1.30;;;29.40;28.10;;;;;;5051565;28;20488;-71
2023/03/27 10:58:51;;;;;;;3.77;1.27;;;30.40;28.10;;;;;;5051249;28;20839;-71
2023/03/27 11:01:27;;;;;;;2.90;1.63;;;32.40;27.80;;;;;;5051593;28;20424;-71
2023/03/27 11:04:07;;;;;;;3.27;1.67;;;34.20;26.60;;;;;;5046914;28;21033;-71
2023/03/27 11:06:38;;;;;;;2.20;1.13;;;34.90;25.70;;;;;;5031813;28;20883;-70
2023/03/27 11:09:42;;;;;;;4.50;1.50;;;33.60;25.20;;;;;;5031339;28;20468;-71
2023/03/27 11:12:15;;;;;;;3.07;1.60;;;32.80;25.80;;;;;;5009299;28;20915;-71
2023/03/27 11:14:49;;;;;;;3.83;1.70;;;32.10;26.00;;;;;;5023641;28;20543;-71
2023/03/27 11:17:20;;;;;;;2.40;1.20;;;30.40;25.80;;;;;;5031263;28;20930;-71
2023/03/27 11:19:51;;;;;;;1.77;1.10;;;28.30;26.20;;;;;;5030246;28;20445;-71
2023/03/27 11:22:42;;;;;;;3.60;1.67;;;26.00;27.20;;;;;;5031253;28;20965;-71
2023/03/27 11:25:27;;;;;;;1.13;0.90;;;23.30;28.70;;;;;;5034260;28;20442;-70
2023/03/27 11:28:08;;;;;;;1.40;1.30;;;20.90;30.00;;;;;;5041775;28;20756;-70
2023/03/27 11:31:01;;;;;;;1.50;1.03;;;21.60;34.00;;;;;;5074846;28;20404;-71
2023/03/27 11:33:34;;;;;;;1.57;1.20;;;25.70;34.50;;;;;;5072210;28;20470;-71
2023/03/27 11:36:38;;;;;;;3.60;1.20;;;29.40;30.50;;;;;;5073653;28;20415;-71
2023/03/27 11:39:22;;;;;;;1.40;1.00;;;31.60;26.70;;;;;;5060789;28;20408;-72
2023/03/27 11:42:00;;;;;;;3.63;1.00;;;32.00;25.70;;;;;;5057145;28;21136;-73
2023/03/27 11:44:29;;;;;;;2.40;1.30;;;29.80;25.60;;;;;;5059461;28;20543;-71
2023/03/27 11:47:12;;;;;;;1.40;1.10;;;27.40;25.80;;;;;;5056059;28;20914;-72
2023/03/27 11:50:06;;;;;;;2.33;0.90;;;25.10;27.10;;;;;;5054579;28;20410;-71
2023/03/27 11:53:01;;;;;;;1.17;0.80;;;23.20;28.40;;;;;;5055664;28;20449;-72
2023/03/27 11:55:52;;;;;;;2.27;1.00;;;21.50;29.90;;;;;;5035775;28;20500;-71
2023/03/27 11:58:35;;;;;;;1.40;0.70;;;20.50;30.30;;;;;;5054823;28;20408;-71
2023/03/27 12:01:06;;;;;;;2.73;1.27;;;21.20;32.80;;;;;;5054398;28;20409;-71
2023/03/27 12:03:51;;;;;;;1.67;0.90;;;21.00;33.60;;;;;;5052417;28;20460;-71
2023/03/27 12:06:33;;;;;;;1.90;1.10;;;20.30;36.10;;;;;;5034228;28;20379;-71
2023/03/27 12:09:17;;;;;;;2.87;1.10;;;21.10;38.20;;;;;;5033980;28;20399;-71
2023/03/27 12:11:58;;;;;;;2.80;0.93;;;21.30;36.90;;;;;;5034091;28;20398;-71
2023/03/27 12:14:49;;;;;;;1.40;0.87;;;21.00;36.80;;;;;;5032614;28;20453;-71
2023/03/27 12:17:40;;;;;;;1.20;1.00;;;19.90;37.00;;;;;;5033714;28;20438;-71
2023/03/27 12:20:14;;;;;;;2.50;1.33;;;18.70;38.00;;;;;;5034714;28;20807;-71
2023/03/27 12:23:01;;;;;;;0.90;0.80;;;18.00;39.80;;;;;;5033284;28;20441;-69
2023/03/27 12:25:59;;;;;;;1.73;0.80;;;19.00;41.30;;;;;;5033812;28;20464;-71
2023/03/27 12:28:50;;;;;;;1.40;0.90;;;20.70;39.70;;;;;;5032439;28;20421;-70
2023/03/27 12:31:38;;;;;;;1.10;0.73;;;21.10;37.30;;;;;;5033840;28;20674;-70
2023/03/27 12:34:13;;;;;;;1.17;0.77;;;23.10;37.70;;;;;;5032114;28;20449;-70
2023/03/27 12:36:43;;;;;;;1.63;1.03;;;26.40;36.10;;;;;;5033575;28;20410;-70
2023/03/27 12:39:18;;;;;;;2.70;1.00;;;28.90;32.40;;;;;;5039007;28;20978;-70
2023/03/27 12:41:45;;;;;;;1.30;1.07;;;30.80;29.70;;;;;;5052047;28;20874;-71
2023/03/27 12:44:13;;;;;;;1.30;1.00;;;32.20;29.00;;;;;;5073266;28;20463;-70
2023/03/27 12:46:40;;;;;;;1.50;1.00;;;33.30;27.90;;;;;;5073368;28;20401;-69
2023/03/27 12:49:06;;;;;;;2.07;1.03;;;32.20;26.70;;;;;;5072961;28;20483;-70
2023/03/27 12:51:53;;;;;;;1.20;0.90;;;29.60;26.80;;;;;;5073315;28;20397;-70
2023/03/27 12:54:29;;;;;;;2.10;0.93;;;26.20;28.60;;;;;;5073098;28;20420;-69
2023/03/27 12:57:19;;;;;;;0.90;0.70;;;23.90;30.60;;;;;;5071757;28;20423;-71
2023/03/27 12:59:56;;;;;;;1.50;1.00;;;23.30;34.10;;;;;;5070358;28;20537;-70
2023/03/27 13:02:46;;;;;;;1.87;1.20;;;25.90;36.50;;;;;;5073031;28;20959;-70
2023/03/27 13:05:30;;;;;;;1.60;1.07;;;29.00;33.50;;;;;;5057666;28;20449;-70
2023/03/27 13:08:31;;;;;;;2.33;1.37;;;31.80;30.80;;;;;;5052665;28;20393;-70
2023/03/27 13:11:20;;;;;;;1.80;1.40;;;33.50;29.00;;;;;;5052027;28;20811;-68
2023/03/27 13:14:16;;;;;;;3.50;1.47;;;34.90;27.90;;;;;;5053345;28;21003;-72
2023/03/27 13:16:58;;;;;;;5.33;1.40;;;35.90;26.50;;;;;;5054434;28;20401;-71
2023/03/27 13:19:36;;;;;;;2.80;1.27;;;33.80;25.00;;;;;;5053406;28;20401;-72